Alzira, Spain
Current Conditions -  °F | °C
As of 12:30 AM on Tuesday 21 Oct 2014 (Local Time) from LEVC Reporting Station
Clear Clear  
Wind Chill: 64°   Ceiling: Unl
Heat Index: 64°   Visibility: 6mi
Dew Point: 59°   Wind: 2mph
Humidity: 83%   Direction: NA
Pressure: 30.12"   Gusts: NA
Location:  39.15°N, 0.43°W
Report Text: LEVC 202230Z VRB02KT CAVOK 18/15 Q1020 NOSIG
Loading
Personal Weather Stations






























Interactive Weather Map
Tropical Storm Tracking
New forecast layout! Learn more

10-Day Weather Forecast

Advertisements
Track Severe Weather on mobile